Time;durP1;ratioP1;P1;durP2;ratioP2;P2;SDS_P1;SDS_P2;PMS_P1;PMS_P2;Temp;Humidity;BMP_temperature;BMP_pressure;BME280_temperature;BME280_humidity;BME280_pressure;Samples;Min_cycle;Max_cycle;Signal;HPM_P1;HPM_P2
2022/03/09 00:00:43;;;;;;;30.60;16.92;;;;;;;1.82;55.44;101995.28;5073161;28;20510;-70
2022/03/09 00:03:08;;;;;;;29.92;16.95;;;;;;;1.85;55.51;101992.84;5076188;28;20024;-70
2022/03/09 00:05:34;;;;;;;30.50;16.83;;;;;;;1.84;55.06;101995.38;5075963;28;20045;-70
2022/03/09 00:07:59;;;;;;;30.13;15.52;;;;;;;1.89;54.83;102005.25;5076372;28;20017;-70
2022/03/09 00:10:24;;;;;;;27.70;15.40;;;;;;;1.92;54.50;102001.91;5076287;28;20111;-70
2022/03/09 00:12:50;;;;;;;28.92;15.60;;;;;;;1.83;55.08;102002.28;5076063;28;20052;-71
2022/03/09 00:15:15;;;;;;;28.05;15.27;;;;;;;1.78;55.54;102005.41;5072231;28;20090;-71
2022/03/09 00:17:40;;;;;;;27.83;15.18;;;;;;;1.78;54.67;102006.34;5075868;28;20031;-71
2022/03/09 00:20:06;;;;;;;27.23;14.75;;;;;;;1.79;54.57;102002.00;5076230;28;20033;-71
2022/03/09 00:22:32;;;;;;;27.48;14.98;;;;;;;1.79;54.25;102010.75;5075763;28;20107;-72
2022/03/09 00:24:57;;;;;;;28.08;15.02;;;;;;;1.78;54.56;102011.56;5076102;28;20166;-72
2022/03/09 00:27:23;;;;;;;28.75;14.90;;;;;;;1.70;54.87;102007.59;5075876;28;20033;-71
2022/03/09 00:29:48;;;;;;;27.70;14.70;;;;;;;1.72;54.82;102006.88;5075675;28;20074;-71
2022/03/09 00:32:14;;;;;;;27.65;15.40;;;;;;;1.77;54.57;102004.53;5075827;28;20028;-71
2022/03/09 00:34:40;;;;;;;28.30;15.18;;;;;;;1.80;54.54;102003.81;5075624;28;20029;-71
2022/03/09 00:37:05;;;;;;;28.25;15.15;;;;;;;1.81;54.33;102011.72;5075664;28;20033;-72
2022/03/09 00:39:30;;;;;;;27.92;15.15;;;;;;;1.87;53.32;102013.78;5075476;28;20107;-72
2022/03/09 00:41:56;;;;;;;27.75;15.05;;;;;;;1.90;53.10;102008.75;5075716;28;20020;-71
2022/03/09 00:44:21;;;;;;;28.50;15.48;;;;;;;1.88;53.25;102010.38;5075639;28;20070;-71
2022/03/09 00:46:47;;;;;;;26.63;14.27;;;;;;;1.84;54.20;102011.91;5075567;28;20467;-71
2022/03/09 00:49:13;;;;;;;27.33;15.18;;;;;;;1.83;53.27;102001.38;5075751;28;20043;-70
2022/03/09 00:51:38;;;;;;;28.20;14.63;;;;;;;1.81;53.88;102006.50;5075298;28;20028;-70
2022/03/09 00:54:03;;;;;;;30.65;14.73;;;;;;;1.74;53.51;102009.56;5075551;28;20025;-71
2022/03/09 00:56:29;;;;;;;27.67;14.90;;;;;;;1.73;53.47;102007.75;5075398;28;20119;-71
2022/03/09 00:58:54;;;;;;;26.63;14.00;;;;;;;1.70;53.72;102003.28;5075151;28;20028;-71
2022/03/09 01:01:19;;;;;;;27.13;14.23;;;;;;;1.66;53.92;102011.72;5075566;28;20029;-71
2022/03/09 01:03:45;;;;;;;25.85;13.93;;;;;;;1.65;53.76;102004.72;5075128;28;20028;-71
2022/03/09 01:06:10;;;;;;;26.27;13.98;;;;;;;1.61;54.05;102004.44;5074890;28;20043;-71
2022/03/09 01:08:35;;;;;;;26.42;14.02;;;;;;;1.59;53.93;102004.34;5075269;28;20502;-72
2022/03/09 01:11:01;;;;;;;27.60;14.40;;;;;;;1.58;53.94;102007.75;5074983;28;20059;-71
2022/03/09 01:13:26;;;;;;;27.70;14.27;;;;;;;1.53;53.90;101999.69;5074375;28;20153;-70
2022/03/09 01:15:53;;;;;;;27.02;14.70;;;;;;;1.46;53.76;102001.84;5074888;28;20035;-70
2022/03/09 01:18:18;;;;;;;26.75;14.35;;;;;;;1.35;55.33;102006.38;5074854;28;20025;-71
2022/03/09 01:20:44;;;;;;;27.75;14.25;;;;;;;1.23;55.44;102006.53;5074782;28;20024;-71
2022/03/09 01:23:09;;;;;;;27.17;14.40;;;;;;;1.18;56.17;101997.53;5074939;28;20058;-71
2022/03/09 01:25:34;;;;;;;27.80;14.25;;;;;;;1.13;55.71;101996.38;5074681;28;20029;-71
2022/03/09 01:28:00;;;;;;;26.10;14.05;;;;;;;0.98;57.76;101997.22;5074730;28;20024;-71
2022/03/09 01:30:25;;;;;;;27.23;14.88;;;;;;;0.78;59.01;102006.38;5074756;28;20033;-71
2022/03/09 01:32:51;;;;;;;27.73;14.20;;;;;;;0.66;58.63;102003.91;5074861;28;20032;-72
2022/03/09 01:35:17;;;;;;;28.20;14.75;;;;;;;0.55;59.58;102010.16;5070902;28;20025;-72
2022/03/09 01:37:42;;;;;;;26.77;14.13;;;;;;;0.60;57.74;102008.75;5074704;28;20020;-72
2022/03/09 01:40:08;;;;;;;28.15;14.23;;;;;;;0.66;58.36;102009.13;5074430;28;20021;-71
2022/03/09 01:42:33;;;;;;;28.25;14.68;;;;;;;0.55;59.46;102004.94;5074832;28;20024;-72
2022/03/09 01:45:07;;;;;;;26.60;14.60;;;;;;;0.52;59.07;102000.47;5074335;28;20029;-72
2022/03/09 01:47:33;;;;;;;27.67;14.15;;;;;;;0.50;58.42;102004.66;5074163;28;20021;-71
2022/03/09 01:49:59;;;;;;;26.33;14.60;;;;;;;0.44;58.73;101998.19;5074604;28;20025;-72
2022/03/09 01:52:25;;;;;;;27.55;13.95;;;;;;;0.43;59.37;101997.25;5081630;28;20463;-72
2022/03/09 01:54:52;;;;;;;27.40;14.23;;;;;;;0.48;58.78;102000.16;5074020;28;20414;-71
2022/03/09 01:57:19;;;;;;;26.17;14.45;;;;;;;0.45;60.35;101992.16;5070363;28;20047;-71
2022/03/09 01:59:46;;;;;;;27.75;14.50;;;;;;;0.56;59.20;102001.53;5074172;28;20024;-71
2022/03/09 02:02:11;;;;;;;26.98;14.68;;;;;;;0.37;59.91;101986.47;5074135;28;20033;-70
2022/03/09 02:04:37;;;;;;;27.45;14.75;;;;;;;0.36;60.51;101992.47;5071829;28;20120;-71
2022/03/09 02:07:02;;;;;;;29.55;14.82;;;;;;;0.41;58.73;101987.53;5073956;28;20021;-69
2022/03/09 02:09:46;;;;;;;27.58;14.05;;;;;;;0.36;59.67;101984.66;5074137;28;20107;-70
2022/03/09 02:12:16;;;;;;;27.95;14.63;;;;;;;0.30;60.19;101997.28;5074000;28;20040;-69
2022/03/09 02:14:45;;;;;;;27.63;14.40;;;;;;;0.31;60.32;102005.19;5073721;28;20032;-70
2022/03/09 02:17:15;;;;;;;27.08;13.80;;;;;;;0.19;60.30;102009.59;5074130;28;20119;-71
2022/03/09 02:19:43;;;;;;;29.23;14.80;;;;;;;0.16;60.05;101998.97;5073708;28;20032;-71
2022/03/09 02:22:35;;;;;;;27.48;14.35;;;;;;;0.13;59.89;102003.97;5073458;28;20064;-70
2022/03/09 02:25:03;;;;;;;27.48;14.93;;;;;;;0.06;60.57;101999.16;5028475;28;20045;-70
2022/03/09 02:27:28;;;;;;;27.70;14.50;;;;;;;0.07;61.85;102003.59;5031646;28;20408;-71
2022/03/09 02:29:54;;;;;;;27.92;14.70;;;;;;;-0.04;61.26;101998.59;5031442;28;20041;-69
2022/03/09 02:32:20;;;;;;;27.33;14.95;;;;;;;-0.03;61.32;102003.00;5031384;28;20357;-72
2022/03/09 02:34:46;;;;;;;28.95;15.25;;;;;;;-0.03;62.55;102003.00;5031410;28;20132;-70
2022/03/09 02:37:12;;;;;;;27.55;14.30;;;;;;;-0.06;61.50;102000.19;5031363;28;20041;-71
2022/03/09 02:39:37;;;;;;;27.42;14.90;;;;;;;-0.08;61.61;101988.78;5014360;28;20034;-71
2022/03/09 02:42:03;;;;;;;27.40;14.93;;;;;;;-0.09;61.69;101986.06;5031369;28;20049;-71
2022/03/09 02:44:29;;;;;;;27.63;15.23;;;;;;;-0.21;62.00;101986.16;5031082;28;20460;-68
2022/03/09 02:46:55;;;;;;;28.52;14.82;;;;;;;-0.18;61.80;101981.16;5031155;28;20029;-68
2022/03/09 02:49:20;;;;;;;28.30;15.13;;;;;;;-0.09;60.96;101976.56;5031261;28;20096;-68
2022/03/09 02:51:45;;;;;;;27.05;14.57;;;;;;;-0.10;60.74;101980.00;5031031;28;20033;-67
2022/03/09 02:54:11;;;;;;;27.42;14.63;;;;;;;-0.10;62.83;101968.66;5031056;28;20411;-68
2022/03/09 02:56:36;;;;;;;28.00;15.18;;;;;;;-0.21;62.67;101973.19;5031052;28;20419;-68
2022/03/09 02:59:02;;;;;;;28.15;15.02;;;;;;;-0.31;62.57;101971.66;5030980;28;20040;-68
2022/03/09 03:01:28;;;;;;;28.23;14.77;;;;;;;-0.33;62.21;101977.56;5043016;28;20040;-68
2022/03/09 03:03:54;;;;;;;27.77;15.05;;;;;;;-0.29;62.35;101977.88;5073035;28;20536;-68
2022/03/09 03:06:19;;;;;;;27.30;15.20;;;;;;;-0.32;62.78;101977.69;5072727;28;20036;-68
2022/03/09 03:08:44;;;;;;;27.20;14.98;;;;;;;-0.31;63.14;101978.56;5072992;28;20032;-68
2022/03/09 03:11:10;;;;;;;28.60;15.00;;;;;;;-0.54;63.63;101977.91;5072734;28;20025;-68
2022/03/09 03:13:40;;;;;;;27.55;14.95;;;;;;;-0.50;63.71;101982.53;5072659;28;20036;-68
2022/03/09 03:16:07;;;;;;;26.33;14.63;;;;;;;-0.44;63.11;101985.53;5072778;28;20032;-68
2022/03/09 03:18:33;;;;;;;28.13;15.32;;;;;;;-0.58;64.60;101981.13;5072668;28;20033;-68
2022/03/09 03:20:58;;;;;;;27.63;15.48;;;;;;;-0.73;65.50;101981.88;5072673;28;20055;-67
2022/03/09 03:23:25;;;;;;;27.92;15.32;;;;;;;-0.78;67.03;101980.66;5072677;28;20052;-68
2022/03/09 03:25:52;;;;;;;28.05;15.77;;;;;;;-0.83;66.23;101981.13;5072660;28;20380;-69
2022/03/09 03:28:18;;;;;;;26.73;14.95;;;;;;;-0.82;66.94;101973.44;5072460;28;20024;-68
2022/03/09 03:30:44;;;;;;;29.42;15.65;;;;;;;-0.84;68.11;101975.03;5072684;28;20058;-68
2022/03/09 03:33:10;;;;;;;29.77;15.55;;;;;;;-0.89;67.19;101969.53;5072635;28;20379;-68
2022/03/09 03:35:35;;;;;;;29.45;15.65;;;;;;;-0.97;68.98;101980.19;5070808;28;20024;-67
2022/03/09 03:38:01;;;;;;;30.15;16.10;;;;;;;-1.03;68.00;101969.34;5072580;28;20039;-68
2022/03/09 03:40:26;;;;;;;30.30;16.27;;;;;;;-1.02;68.12;101979.88;5072713;28;20111;-68
2022/03/09 03:42:51;;;;;;;29.02;16.00;;;;;;;-1.05;67.77;101974.44;5072622;28;20478;-67
2022/03/09 03:45:17;;;;;;;28.60;15.75;;;;;;;-1.08;68.08;101969.97;5072653;28;20024;-67
2022/03/09 03:47:42;;;;;;;27.30;15.20;;;;;;;-1.09;67.60;101975.94;5072326;28;20378;-69
2022/03/09 03:50:08;;;;;;;29.00;15.73;;;;;;;-1.06;67.49;101973.56;5072321;28;20113;-72
2022/03/09 03:52:33;;;;;;;29.35;15.68;;;;;;;-1.08;68.34;101969.97;5072602;28;20036;-72
2022/03/09 03:54:59;;;;;;;28.23;15.80;;;;;;;-1.08;68.31;101982.94;5072246;28;20047;-72
2022/03/09 03:57:24;;;;;;;28.48;15.63;;;;;;;-1.04;67.66;101970.19;5072599;28;20043;-69
2022/03/09 03:59:49;;;;;;;30.02;15.68;;;;;;;-1.10;68.39;101974.13;5072343;28;20502;-72
2022/03/09 04:02:15;;;;;;;29.02;16.13;;;;;;;-1.04;67.80;101975.38;5072247;28;20097;-72
2022/03/09 04:04:40;;;;;;;29.05;15.02;;;;;;;-1.01;68.06;101981.66;5072289;28;20024;-71
2022/03/09 04:07:06;;;;;;;30.05;16.38;;;;;;;-1.03;67.91;101978.06;5072386;28;20021;-72
2022/03/09 04:09:31;;;;;;;28.70;15.70;;;;;;;-1.09;68.12;101978.53;5072245;28;20028;-71
2022/03/09 04:11:56;;;;;;;28.75;16.30;;;;;;;-1.12;69.56;101977.41;5072367;28;20021;-72
2022/03/09 04:14:22;;;;;;;30.02;15.52;;;;;;;-1.18;69.64;101988.28;5072112;28;20059;-72
2022/03/09 04:16:49;;;;;;;29.95;15.93;;;;;;;-1.17;69.86;101990.06;5072005;28;20483;-72
2022/03/09 04:19:14;;;;;;;29.85;15.65;;;;;;;-1.21;69.96;101987.16;5072527;28;20024;-72
2022/03/09 04:21:40;;;;;;;30.35;15.68;;;;;;;-1.24;70.28;101986.16;5071944;28;20033;-72
2022/03/09 04:24:05;;;;;;;28.33;15.68;;;;;;;-1.28;69.23;101985.81;5072042;28;20032;-71
2022/03/09 04:26:31;;;;;;;30.63;16.27;;;;;;;-1.33;70.14;101975.13;5072153;28;20020;-72
2022/03/09 04:28:56;;;;;;;28.67;16.55;;;;;;;-1.35;71.03;101973.22;5071919;28;20123;-72
2022/03/09 04:31:22;;;;;;;31.15;16.08;;;;;;;-1.30;70.10;101977.03;5071997;28;20024;-73
2022/03/09 04:33:47;;;;;;;29.00;15.73;;;;;;;-1.31;69.66;101970.03;5072078;28;20107;-71
2022/03/09 04:36:13;;;;;;;28.75;15.68;;;;;;;-1.27;70.09;101969.47;5072109;28;20090;-72
2022/03/09 04:38:38;;;;;;;29.15;16.05;;;;;;;-1.21;69.67;101966.41;5072081;28;20494;-71
2022/03/09 04:41:03;;;;;;;29.85;15.93;;;;;;;-1.23;69.65;101971.47;5071909;28;20452;-72
2022/03/09 04:43:29;;;;;;;28.52;15.35;;;;;;;-1.21;69.77;101966.41;5071826;28;20482;-71
2022/03/09 04:45:54;;;;;;;30.17;16.02;;;;;;;-1.24;68.97;101968.00;5071895;28;20039;-72
2022/03/09 04:48:20;;;;;;;28.90;15.65;;;;;;;-1.20;68.87;101960.41;5075025;28;20032;-72
2022/03/09 04:50:45;;;;;;;29.52;15.93;;;;;;;-1.19;68.71;101967.38;5075315;28;20033;-72
2022/03/09 04:53:11;;;;;;;30.65;15.63;;;;;;;-1.16;68.60;101965.94;5075565;28;20383;-72
2022/03/09 04:55:36;;;;;;;28.73;15.45;;;;;;;-1.21;68.96;101963.81;5075165;28;20178;-72
2022/03/09 04:58:01;;;;;;;29.08;15.30;;;;;;;-1.23;69.17;101974.06;5075195;28;20052;-72
2022/03/09 05:00:27;;;;;;;28.52;15.45;;;;;;;-1.24;69.50;101967.06;5075340;28;20074;-72
2022/03/09 05:02:52;;;;;;;28.27;15.13;;;;;;;-1.27;70.66;101966.88;5075027;28;20379;-72
2022/03/09 05:05:18;;;;;;;27.60;15.15;;;;;;;-1.33;69.96;101969.03;5074746;28;20041;-72
2022/03/09 05:07:43;;;;;;;29.77;15.75;;;;;;;-1.42;69.86;101977.97;5075506;28;20119;-72
2022/03/09 05:10:10;;;;;;;28.45;15.48;;;;;;;-1.39;69.52;101973.81;5072067;28;20488;-72
2022/03/09 05:12:36;;;;;;;27.55;14.77;;;;;;;-1.46;69.82;101973.34;5075089;28;20025;-72
2022/03/09 05:15:03;;;;;;;29.58;15.93;;;;;;;-1.49;70.95;101980.00;5075033;28;20037;-72
2022/03/09 05:17:28;;;;;;;30.67;15.23;;;;;;;-1.59;72.41;101978.44;5074709;28;20032;-72
2022/03/09 05:19:54;;;;;;;29.23;16.15;;;;;;;-1.77;72.90;101968.56;5074873;28;20025;-70
2022/03/09 05:22:19;;;;;;;28.98;16.10;;;;;;;-1.85;74.37;101972.31;5075036;28;20020;-72
2022/03/09 05:24:44;;;;;;;29.77;16.23;;;;;;;-1.89;74.90;101974.53;5074903;28;20371;-73
2022/03/09 05:27:09;;;;;;;29.48;15.95;;;;;;;-1.95;75.65;101973.31;5074874;28;20028;-72
2022/03/09 05:29:35;;;;;;;29.63;16.27;;;;;;;-1.98;76.04;101972.19;5074624;28;20036;-72
2022/03/09 05:32:00;;;;;;;30.38;16.42;;;;;;;-2.04;77.05;101975.25;5074804;28;20029;-72
2022/03/09 05:34:26;;;;;;;29.23;16.10;;;;;;;-2.00;75.94;101977.25;5074643;28;20468;-72
2022/03/09 05:36:51;;;;;;;30.10;16.15;;;;;;;-2.00;76.57;101979.84;5074377;28;20102;-72
2022/03/09 05:39:17;;;;;;;29.83;16.52;;;;;;;-1.96;76.02;101981.88;5074347;28;20028;-72
2022/03/09 05:41:42;;;;;;;30.08;16.13;;;;;;;-1.96;75.81;101981.00;5074638;28;20051;-73
2022/03/09 05:44:07;;;;;;;31.98;16.35;;;;;;;-1.93;74.86;101976.91;5074441;28;20086;-72
2022/03/09 05:46:33;;;;;;;30.77;15.95;;;;;;;-1.84;74.19;101975.78;5074351;28;20470;-72
2022/03/09 05:48:59;;;;;;;31.23;16.35;;;;;;;-1.77;73.89;101989.28;5074338;28;20024;-72
2022/03/09 05:51:25;;;;;;;29.55;16.17;;;;;;;-1.76;73.04;101988.53;5074432;28;20068;-72
2022/03/09 05:53:50;;;;;;;32.90;15.77;;;;;;;-1.76;73.09;101988.53;5074216;28;20088;-72
2022/03/09 05:56:15;;;;;;;30.75;15.52;;;;;;;-1.74;73.82;101998.09;5074215;28;20065;-72
2022/03/09 05:58:41;;;;;;;31.58;16.70;;;;;;;-1.72;73.26;102001.69;5074000;28;20031;-72
2022/03/09 06:01:06;;;;;;;31.30;16.48;;;;;;;-1.72;73.62;102006.88;5074254;28;20465;-71
2022/03/09 06:03:32;;;;;;;32.15;15.98;;;;;;;-1.77;73.58;102010.03;5073935;28;20091;-70
2022/03/09 06:05:57;;;;;;;31.13;16.05;;;;;;;-1.80;74.04;102020.19;5073840;28;20093;-68
2022/03/09 06:08:22;;;;;;;32.97;16.67;;;;;;;-1.86;74.67;102011.97;5074140;28;20029;-68
2022/03/09 06:10:48;;;;;;;30.60;16.17;;;;;;;-1.86;73.72;102009.38;5073810;28;20028;-68
2022/03/09 06:13:13;;;;;;;33.05;15.95;;;;;;;-1.79;73.71;102016.81;5073868;28;20024;-70
2022/03/09 06:15:38;;;;;;;30.63;16.00;;;;;;;-1.74;73.37;102024.94;5073839;28;20032;-70
2022/03/09 06:18:04;;;;;;;31.38;16.77;;;;;;;-1.72;73.57;102020.75;5070418;28;20029;-68
2022/03/09 06:20:29;;;;;;;29.73;16.27;;;;;;;-1.76;74.42;102019.63;5073367;28;20024;-69
2022/03/09 06:22:54;;;;;;;31.77;16.70;;;;;;;-1.73;73.63;102026.75;5069221;28;20045;-69
2022/03/09 06:25:20;;;;;;;31.05;15.88;;;;;;;-1.70;73.64;102026.97;5073857;28;20044;-68
2022/03/09 06:27:48;;;;;;;31.92;16.10;;;;;;;-1.69;73.43;102025.25;5073563;28;20024;-70
2022/03/09 06:30:15;;;;;;;31.60;15.95;;;;;;;-1.64;73.39;102021.31;5071693;28;20031;-69
2022/03/09 06:32:41;;;;;;;34.10;16.42;;;;;;;-1.64;73.44;102026.50;5073433;28;20021;-68
2022/03/09 06:35:07;;;;;;;32.08;15.98;;;;;;;-1.65;73.89;102035.06;5073191;28;20371;-68
2022/03/09 06:37:33;;;;;;;31.42;15.77;;;;;;;-1.65;74.23;102024.69;5073513;28;20096;-68
2022/03/09 06:39:59;;;;;;;30.35;15.85;;;;;;;-1.55;73.46;102028.88;5073277;28;20066;-69
2022/03/09 06:42:25;;;;;;;29.92;15.82;;;;;;;-1.49;73.28;102035.38;5073357;28;20091;-70
2022/03/09 06:44:51;;;;;;;31.85;15.90;;;;;;;-1.47;72.17;102036.41;5069438;28;20032;-68
2022/03/09 06:47:16;;;;;;;31.83;16.08;;;;;;;-1.37;72.63;102037.06;5071790;28;20033;-68
2022/03/09 06:49:43;;;;;;;31.33;16.08;;;;;;;-1.37;72.95;102048.31;5073130;28;20533;-68
2022/03/09 06:52:08;;;;;;;31.30;16.30;;;;;;;-1.32;73.03;102053.88;5069876;28;20024;-71
2022/03/09 06:54:34;;;;;;;30.70;16.08;;;;;;;-1.23;72.86;102057.13;5063046;28;20039;-69
2022/03/09 06:57:00;;;;;;;30.55;16.20;;;;;;;-1.23;72.76;102067.50;5064835;28;20059;-67
2022/03/09 06:59:25;;;;;;;30.10;16.45;;;;;;;-1.17;72.07;102062.72;5062959;28;20060;-73
2022/03/09 07:01:50;;;;;;;31.15;15.98;;;;;;;-1.10;72.20;102070.16;5064609;28;20036;-68
2022/03/09 07:04:16;;;;;;;33.05;15.80;;;;;;;-1.00;71.62;102063.06;5063497;28;20032;-68
2022/03/09 07:06:41;;;;;;;31.00;16.33;;;;;;;-0.89;71.27;102069.88;5063718;28;20131;-67
2022/03/09 07:09:07;;;;;;;31.77;16.80;;;;;;;-0.84;72.53;102071.13;5063226;28;20379;-68
2022/03/09 07:11:32;;;;;;;30.80;15.77;;;;;;;-0.76;71.33;102072.56;5064497;28;20585;-69
2022/03/09 07:13:57;;;;;;;30.10;16.63;;;;;;;-0.68;71.10;102078.28;5063317;28;20025;-68
2022/03/09 07:16:23;;;;;;;31.65;16.35;;;;;;;-0.55;70.33;102080.94;5064021;28;20062;-68
2022/03/09 07:18:48;;;;;;;33.17;15.82;;;;;;;-0.41;69.62;102080.97;5064027;28;20028;-68
2022/03/09 07:21:14;;;;;;;29.75;16.05;;;;;;;-0.30;69.53;102080.03;5064409;28;20102;-68
2022/03/09 07:23:39;;;;;;;29.08;15.65;;;;;;;-0.13;68.59;102078.56;5062601;28;20556;-68
2022/03/09 07:26:05;;;;;;;31.45;15.95;;;;;;;0.07;67.59;102079.00;5064589;28;20032;-68
2022/03/09 07:28:30;;;;;;;29.33;15.57;;;;;;;0.23;67.38;102073.13;5062810;28;20494;-69
2022/03/09 07:30:56;;;;;;;32.70;15.82;;;;;;;0.36;67.81;102075.72;5063778;28;20028;-69
2022/03/09 07:33:21;;;;;;;30.60;15.73;;;;;;;0.55;67.11;102077.81;5062900;28;20687;-69
2022/03/09 07:35:47;;;;;;;29.55;15.13;;;;;;;0.67;65.40;102068.19;5064362;28;20041;-72
2022/03/09 07:38:14;;;;;;;29.65;15.52;;;;;;;0.85;64.19;102078.00;5063939;28;20036;-69
2022/03/09 07:40:39;;;;;;;30.10;15.77;;;;;;;1.01;63.56;102070.34;5063541;28;20155;-69
2022/03/09 07:43:05;;;;;;;29.88;16.00;;;;;;;1.12;62.79;102067.50;5062838;28;20158;-70
2022/03/09 07:45:30;;;;;;;29.42;15.68;;;;;;;1.29;62.02;102065.94;5063378;28;20363;-71
2022/03/09 07:47:56;;;;;;;29.30;15.23;;;;;;;1.44;60.95;102069.47;5064672;28;20119;-71
2022/03/09 07:50:22;;;;;;;29.65;15.65;;;;;;;1.55;59.70;102060.59;5063984;28;20037;-71
2022/03/09 07:52:48;;;;;;;28.42;14.98;;;;;;;1.60;58.65;102063.47;5063546;28;20033;-71
2022/03/09 07:55:13;;;;;;;29.08;14.75;;;;;;;1.69;58.52;102063.13;5062133;28;20059;-71
2022/03/09 07:57:39;;;;;;;28.92;15.25;;;;;;;1.75;58.22;102063.53;5063974;28;20151;-70
2022/03/09 08:00:06;;;;;;;28.70;14.95;;;;;;;1.92;59.22;102069.72;5063622;28;20403;-72
2022/03/09 08:02:31;;;;;;;28.95;15.15;;;;;;;2.08;56.62;102064.63;5063960;28;20475;-71
2022/03/09 08:04:56;;;;;;;30.17;15.10;;;;;;;2.23;55.57;102072.44;5062446;28;20031;-71
2022/03/09 08:07:22;;;;;;;28.58;14.35;;;;;;;2.42;54.13;102076.09;5063866;28;20024;-70
2022/03/09 08:09:47;;;;;;;29.75;15.55;;;;;;;2.60;54.83;102077.13;5064097;28;20037;-71
2022/03/09 08:12:12;;;;;;;27.00;14.85;;;;;;;2.81;53.60;102080.84;5063828;28;20033;-71
2022/03/09 08:14:38;;;;;;;28.50;15.13;;;;;;;3.04;54.08;102083.00;5062529;28;20029;-68
2022/03/09 08:17:03;;;;;;;27.98;14.75;;;;;;;3.19;52.39;102082.97;5063226;28;20029;-69
2022/03/09 08:19:29;;;;;;;27.15;14.50;;;;;;;3.39;53.32;102090.97;5063755;28;20111;-70
2022/03/09 08:21:55;;;;;;;27.23;14.48;;;;;;;3.56;53.85;102091.88;5064138;28;20043;-69
2022/03/09 08:24:20;;;;;;;26.67;14.68;;;;;;;3.74;51.68;102097.19;5065847;28;20646;-68
2022/03/09 08:26:46;;;;;;;28.63;15.25;;;;;;;3.85;49.41;102096.03;5067799;28;20509;-68
2022/03/09 08:29:12;;;;;;;27.27;14.55;;;;;;;3.96;51.47;102091.31;5065456;28;20108;-69
2022/03/09 08:31:37;;;;;;;28.40;15.15;;;;;;;4.13;50.36;102092.19;5067005;28;20029;-67
2022/03/09 08:34:02;;;;;;;29.48;14.77;;;;;;;4.29;49.17;102094.75;5066704;28;20024;-69
2022/03/09 08:36:28;;;;;;;28.45;14.93;;;;;;;4.57;50.19;102095.22;5067363;28;20040;-70
2022/03/09 08:38:55;;;;;;;27.52;15.00;;;;;;;4.65;48.43;102091.28;5067411;28;20021;-69
2022/03/09 08:41:24;;;;;;;27.55;14.85;;;;;;;4.63;47.25;102093.81;5067354;28;20028;-69
2022/03/09 08:43:50;;;;;;;29.92;15.10;;;;;;;4.61;48.76;102098.06;5065703;28;20073;-68
2022/03/09 08:46:15;;;;;;;28.83;15.38;;;;;;;4.72;47.71;102101.22;5066745;28;20025;-69
2022/03/09 08:48:40;;;;;;;27.83;15.40;;;;;;;4.93;46.65;102105.69;5066902;28;20397;-69
2022/03/09 08:51:06;;;;;;;27.73;14.85;;;;;;;5.13;46.10;102099.66;5066427;28;20024;-69
2022/03/09 08:53:32;;;;;;;26.90;15.10;;;;;;;5.24;45.80;102108.00;5066149;28;20028;-69
2022/03/09 08:55:57;;;;;;;29.75;15.93;;;;;;;5.43;45.98;102101.00;5066345;28;20044;-69
2022/03/09 08:58:23;;;;;;;28.67;14.68;;;;;;;5.64;44.80;102098.44;5066935;28;20029;-69
2022/03/09 09:00:48;;;;;;;28.10;15.20;;;;;;;5.80;44.13;102098.28;5067279;28;20432;-69
2022/03/09 09:03:13;;;;;;;28.65;15.40;;;;;;;6.02;43.74;102104.50;5065349;28;20119;-69
2022/03/09 09:05:39;;;;;;;28.83;15.63;;;;;;;6.18;43.63;102103.44;5066248;28;20040;-69
2022/03/09 09:08:05;;;;;;;30.33;15.65;;;;;;;6.31;41.61;102104.84;5066615;28;20499;-68
2022/03/09 09:10:31;;;;;;;29.58;15.95;;;;;;;6.56;42.39;102104.13;5066637;28;20119;-69
2022/03/09 09:13:00;;;;;;;28.15;15.15;;;;;;;6.87;41.84;102102.72;5066618;28;20043;-71
2022/03/09 09:15:25;;;;;;;29.25;15.63;;;;;;;7.07;42.13;102099.16;5065761;28;20086;-70
2022/03/09 09:17:59;;;;;;;30.38;15.88;;;;;;;7.45;41.26;102101.44;5066534;28;20438;-68
2022/03/09 09:20:25;;;;;;;28.95;14.93;;;;;;;7.79;40.88;102095.69;5066412;28;20849;-69
2022/03/09 09:22:52;;;;;;;28.20;15.13;;;;;;;7.86;39.29;102091.50;5066771;28;20029;-69
2022/03/09 09:25:18;;;;;;;30.23;15.88;;;;;;;7.62;38.88;102092.44;5070720;28;20419;-68
2022/03/09 09:27:43;;;;;;;28.02;15.70;;;;;;;7.58;39.30;102095.78;5074981;28;20021;-71
2022/03/09 09:30:09;;;;;;;28.63;15.95;;;;;;;7.85;39.38;102095.00;5074812;28;20070;-68
2022/03/09 09:32:34;;;;;;;27.98;15.40;;;;;;;8.32;39.72;102090.47;5063223;28;20052;-67
2022/03/09 09:35:00;;;;;;;29.25;16.30;;;;;;;8.50;37.93;102092.88;5065746;28;20386;-69
2022/03/09 09:37:25;;;;;;;31.52;16.10;;;;;;;8.69;37.33;102089.09;5066455;28;20550;-67
2022/03/09 09:39:50;;;;;;;33.33;16.73;;;;;;;8.80;37.69;102091.16;5065282;28;20021;-67
2022/03/09 09:42:16;;;;;;;28.65;15.98;;;;;;;8.93;38.34;102089.78;5066856;28;20392;-70
2022/03/09 09:44:42;;;;;;;29.63;15.70;;;;;;;9.38;38.45;102092.03;5065314;28;20035;-70
2022/03/09 09:47:13;;;;;;;29.75;16.70;;;;;;;9.82;35.95;102091.50;5064597;28;20037;-71
2022/03/09 09:49:39;;;;;;;29.60;16.10;;;;;;;10.33;35.65;102090.19;5064609;28;20065;-70
2022/03/09 09:52:06;;;;;;;29.02;16.13;;;;;;;10.64;34.93;102089.19;5064656;28;20518;-70
2022/03/09 09:54:33;;;;;;;30.33;16.15;;;;;;;11.34;35.06;102094.28;5063864;28;20524;-70
2022/03/09 09:56:59;;;;;;;28.35;15.23;;;;;;;12.10;33.32;102094.03;5065365;28;20040;-70
2022/03/09 09:59:25;;;;;;;30.30;16.58;;;;;;;12.59;32.27;102096.63;5066360;28;20025;-69
2022/03/09 10:01:50;;;;;;;28.92;16.45;;;;;;;12.96;31.84;102090.97;5064455;28;20036;-68
2022/03/09 10:04:16;;;;;;;31.50;16.63;;;;;;;13.44;30.56;102092.53;5065794;28;20032;-70
2022/03/09 10:06:41;;;;;;;31.48;16.67;;;;;;;13.78;30.31;102099.13;5065319;28;20325;-69
2022/03/09 10:09:12;;;;;;;31.10;17.00;;;;;;;13.65;30.54;102091.00;5065139;28;20557;-69
2022/03/09 10:11:50;;;;;;;31.33;17.10;;;;;;;14.00;31.45;102087.84;5064192;28;20032;-70
2022/03/09 10:14:17;;;;;;;29.90;17.23;;;;;;;13.89;29.44;102087.72;5064865;28;20122;-68
2022/03/09 10:17:06;;;;;;;29.38;16.92;;;;;;;14.69;29.67;102084.88;5065398;28;20037;-69
2022/03/09 10:19:34;;;;;;;28.77;16.50;;;;;;;15.15;29.37;102079.84;5064883;28;20028;-68
2022/03/09 10:22:21;;;;;;;30.02;16.67;;;;;;;15.87;28.95;102079.22;5064265;28;20041;-68
2022/03/09 10:24:47;;;;;;;28.73;16.60;;;;;;;16.14;27.49;102088.16;5063328;28;20426;-69
2022/03/09 10:27:12;;;;;;;29.00;15.98;;;;;;;16.51;26.84;102077.47;5064185;28;20032;-69
2022/03/09 10:29:37;;;;;;;30.13;16.77;;;;;;;16.75;26.29;102076.56;5063858;28;20037;-67
2022/03/09 10:32:03;;;;;;;30.13;16.95;;;;;;;17.08;25.96;102069.38;5063922;28;20039;-68
2022/03/09 10:34:29;;;;;;;29.80;16.52;;;;;;;17.57;25.45;102062.94;5064501;28;20052;-69
2022/03/09 10:37:06;;;;;;;30.08;16.73;;;;;;;18.07;25.27;102061.78;5064964;28;20033;-68
2022/03/09 10:39:39;;;;;;;30.75;17.05;;;;;;;17.58;25.63;102067.41;5063555;28;20031;-68
2022/03/09 10:42:22;;;;;;;30.23;17.00;;;;;;;17.90;26.25;102069.91;5062608;28;20060;-68
2022/03/09 10:44:48;;;;;;;;;;;;;;;18.56;26.34;102071.16;5062836;28;20124;-68
2022/03/09 10:47:34;;;;;;;30.88;16.85;;;;;;;18.77;23.91;102082.53;5063551;28;20231;-68
2022/03/09 10:50:21;;;;;;;30.38;17.50;;;;;;;18.88;25.14;102079.81;5063106;28;20033;-68
2022/03/09 10:53:00;;;;;;;29.70;17.60;;;;;;;18.78;23.91;102071.81;5064161;28;20032;-69
2022/03/09 10:55:27;;;;;;;30.20;18.15;;;;;;;19.06;23.59;102065.31;5063454;28;20045;-69
2022/03/09 10:58:11;;;;;;;31.73;16.85;;;;;;;19.85;23.58;102068.75;5063426;28;20028;-68
2022/03/09 11:00:43;;;;;;;30.58;17.98;;;;;;;19.97;23.07;102074.84;5063544;28;20038;-69
2022/03/09 11:03:12;;;;;;;33.35;18.75;;;;;;;19.77;22.44;102075.97;5062725;28;20086;-69
2022/03/09 11:05:57;;;;;;;29.52;17.42;;;;;;;20.53;22.66;102072.09;5063581;28;20055;-69
2022/03/09 11:08:27;;;;;;;29.95;17.67;;;;;;;20.53;22.36;102072.09;5064220;28;20486;-69